CheckWX is a tool to help pilots better visualize weather data.  It is not intended as a substitute for an official pre-flight weather briefing.

22:45:01 UTC

ENGM METAR
Oslo Gardermoen Airport
Oslo, Norway
Current

25 mins ago

ENGM 222220Z 01006KT 9999 -RA OVC005 02/02 Q1017
Observed
Nov-22 @ 22:20 UTC
Wind
  • 010° at 6 KTS
Visibility
10,000+ meters
Flight Rules
IFR
Conditions
Light Rain
Cloud Levels
  • Overcast at 500' AGL
Temperature
C / 36°F
Dewpoint
C / 36°F
Humidity
100%
Altimeter
30.03" Hg
Pressure
1016.92 hPa
Previous

55 mins ago

ENGM 222150Z 01006KT 9999 -RA OVC006 02/02 Q1016 TEMPO 4000 -RADZ BR OVC004
Observed
Nov-22 @ 21:50 UTC
Wind
  • 010° at 6 KTS
Visibility
10,000+ meters
Flight Rules
IFR
Conditions
Light Rain
Cloud Levels
  • Overcast at 600' AGL
Temperature
C / 36°F
Dewpoint
C / 36°F
Humidity
100%
Altimeter
30" Hg
Pressure
1015.92 hPa
Previous

1 hour ago

ENGM 222120Z 02005KT 9999 -RA OVC006 03/02 Q1016 TEMPO 4000 -RADZ BR OVC004
Observed
Nov-22 @ 21:20 UTC
Wind
  • 020° at 5 KTS
Visibility
10,000+ meters
Flight Rules
IFR
Conditions
Light Rain
Cloud Levels
  • Overcast at 600' AGL
Temperature
C / 37°F
Dewpoint
C / 36°F
Humidity
93%
Altimeter
30" Hg
Pressure
1015.92 hPa